ěÝzenÝ letovÚho provozu ╚eskÚ republiky
Letiste: LKPR Aktualizace: 06.07.2022 07:34:32  UTC
 METAR LKPR 06.07. 07:30 RRA
METAR LKPR 060730Z 28005KT 220V360 9999 FEW030 18/11 Q1022 NOSIG=
 TAF LKPR 06.07. 05:00 ...
TAF LKPR 060500Z 0606/0712 33009KT CAVOK      PROB30 TEMPO 0606/0614 8000 SHRA SCT030TCU      BECMG 0622/0700 25008KT      BECMG 0708/0710 23010G22KT 8000 RA BKN025=